Time;durP1;ratioP1;P1;durP2;ratioP2;P2;SDS_P1;SDS_P2;PMS_P1;PMS_P2;Temp;Humidity;BMP_temperature;BMP_pressure;BME280_temperature;BME280_humidity;BME280_pressure;Samples;Min_cycle;Max_cycle;Signal;HPM_P1;HPM_P2
2021/07/08 00:00:22;;;;;;;2.27;1.80;;;;;;;17.06;71.07;101574.63;5058501;28;20209;-70
2021/07/08 00:02:50;;;;;;;5.37;1.73;;;;;;;17.03;71.16;101575.75;5055078;28;20284;-70
2021/07/08 00:05:25;;;;;;;1.80;1.70;;;;;;;16.86;71.07;101556.41;5059977;28;20726;-70
2021/07/08 00:07:56;;;;;;;5.13;1.70;;;;;;;16.97;71.09;101578.09;5064284;28;20560;-70
2021/07/08 00:10:29;;;;;;;1.70;1.60;;;;;;;16.93;71.33;101591.06;5061488;28;20193;-70
2021/07/08 00:13:00;;;;;;;4.10;1.87;;;;;;;16.90;71.59;101594.03;5064914;28;20208;-71
2021/07/08 00:15:29;;;;;;;3.87;1.70;;;;;;;16.39;71.63;101504.97;5063637;28;20290;-69
2021/07/08 00:17:59;;;;;;;1.97;1.87;;;;;;;16.75;71.43;101587.97;5064146;28;20205;-70
2021/07/08 00:20:30;;;;;;;3.40;1.97;;;;;;;16.71;72.01;101597.34;5060506;28;20229;-70
2021/07/08 00:22:58;;;;;;;6.17;2.00;;;;;;;16.65;72.03;101599.66;5051413;28;20199;-70
2021/07/08 00:25:35;;;;;;;2.60;2.10;;;;;;;16.60;71.89;101596.44;5060982;28;20204;-70
2021/07/08 00:28:06;;;;;;;3.07;1.90;;;;;;;16.63;71.73;101607.06;5064736;28;20713;-70
2021/07/08 00:30:38;;;;;;;2.90;1.97;;;;;;;16.62;71.75;101605.31;5063900;28;20663;-71
2021/07/08 00:33:08;;;;;;;2.80;2.30;;;;;;;16.56;71.42;101605.81;5057505;28;20234;-71
2021/07/08 00:35:39;;;;;;;2.03;1.83;;;;;;;16.44;71.32;101594.94;5064303;28;20694;-70
2021/07/08 00:38:10;;;;;;;2.30;1.60;;;;;;;16.49;71.20;101601.84;5067811;28;20718;-70
2021/07/08 00:40:42;;;;;;;3.57;1.80;;;;;;;16.49;71.20;101609.97;5064183;28;20209;-70
2021/07/08 00:43:11;;;;;;;2.17;1.90;;;;;;;16.43;71.42;101614.91;5068017;28;20554;-70
2021/07/08 00:45:40;;;;;;;1.93;1.73;;;;;;;16.40;71.57;101608.84;5056714;28;20671;-69
2021/07/08 00:48:09;;;;;;;2.63;1.80;;;;;;;16.10;71.28;101571.44;5064761;28;20198;-70
2021/07/08 00:50:42;;;;;;;3.13;1.70;;;;;;;16.32;71.11;101606.75;5064989;28;20651;-69
2021/07/08 00:53:12;;;;;;;3.43;1.70;;;;;;;16.29;71.10;101606.13;5063879;28;20205;-69
2021/07/08 00:55:43;;;;;;;3.23;1.90;;;;;;;16.24;71.40;101606.50;5066308;28;20606;-69
2021/07/08 00:58:17;;;;;;;1.90;1.80;;;;;;;16.18;71.94;101612.38;5065687;28;20276;-71
2021/07/08 01:00:48;;;;;;;2.00;1.90;;;;;;;16.09;72.09;101604.94;5052778;28;20221;-69
2021/07/08 01:03:17;;;;;;;1.83;1.67;;;;;;;16.06;71.74;101608.78;5056827;28;20446;-70
2021/07/08 01:05:48;;;;;;;3.60;2.00;;;;;;;16.03;72.01;101617.13;5046994;28;20196;-70
2021/07/08 01:08:17;;;;;;;2.00;1.67;;;;;;;16.01;71.86;101613.69;5060111;28;20201;-70
2021/07/08 01:10:47;;;;;;;1.70;1.60;;;;;;;15.98;72.24;101616.63;5054771;28;20212;-70
2021/07/08 01:13:17;;;;;;;1.83;1.73;;;;;;;15.94;72.09;101614.28;5060316;28;20204;-70
2021/07/08 01:15:45;;;;;;;1.70;1.60;;;;;;;15.93;72.17;101615.25;5054433;28;20209;-70
2021/07/08 01:18:14;;;;;;;2.40;2.20;;;;;;;15.62;71.98;101571.53;5046224;28;20190;-71
2021/07/08 01:20:42;;;;;;;4.90;2.10;;;;;;;15.84;72.08;101620.38;5050083;28;20669;-70
2021/07/08 01:23:11;;;;;;;2.97;1.70;;;;;;;15.81;71.82;101615.19;5058410;28;20205;-71
2021/07/08 01:25:42;;;;;;;4.33;1.80;;;;;;;15.87;71.36;101621.13;5051099;28;20549;-71
2021/07/08 01:28:11;;;;;;;1.80;1.70;;;;;;;15.86;72.09;101619.38;5050602;28;20664;-70
2021/07/08 01:30:39;;;;;;;3.30;2.00;;;;;;;15.77;71.47;101613.69;5060094;28;20201;-71
2021/07/08 01:33:09;;;;;;;1.83;1.70;;;;;;;15.58;71.92;101588.97;5048707;28;20752;-70
2021/07/08 01:35:37;;;;;;;1.87;1.77;;;;;;;15.77;71.93;101615.53;5053744;28;20585;-70
2021/07/08 01:38:05;;;;;;;1.80;1.70;;;;;;;15.75;71.48;101622.91;5053875;28;20220;-70
2021/07/08 01:40:36;;;;;;;1.87;1.63;;;;;;;15.74;71.32;101627.47;5048068;28;20190;-70
2021/07/08 01:43:04;;;;;;;2.70;1.70;;;;;;;15.71;71.60;101622.28;5047697;28;20712;-71
2021/07/08 01:45:32;;;;;;;3.43;1.90;;;;;;;15.68;71.43;101621.66;5049203;28;20664;-71
2021/07/08 01:48:00;;;;;;;2.67;1.30;;;;;;;15.65;71.29;101630.88;5046796;28;20198;-70
2021/07/08 01:50:29;;;;;;;2.10;1.70;;;;;;;15.62;72.05;101631.13;5053662;28;20201;-71
2021/07/08 01:52:57;;;;;;;1.80;1.70;;;;;;;15.55;72.17;101627.06;5050121;28;20202;-71
2021/07/08 01:55:25;;;;;;;1.97;1.70;;;;;;;15.55;71.59;101624.38;5046937;28;20551;-71
2021/07/08 01:57:56;;;;;;;1.83;1.73;;;;;;;15.52;72.18;101621.91;5062326;28;20299;-70
2021/07/08 02:00:26;;;;;;;1.60;1.50;;;;;;;15.50;71.38;101626.56;5046678;28;20597;-71
2021/07/08 02:02:56;;;;;;;6.20;1.80;;;;;;;15.21;71.67;101585.41;5047028;28;20221;-71
2021/07/08 02:05:25;;;;;;;1.70;1.60;;;;;;;15.50;71.35;101631.97;5048297;28;20582;-71
2021/07/08 02:07:53;;;;;;;1.70;1.60;;;;;;;15.49;71.28;101635.66;5053202;28;20672;-71
2021/07/08 02:10:22;;;;;;;3.30;1.77;;;;;;;15.45;71.89;101623.34;5041558;28;20209;-71
2021/07/08 02:12:50;;;;;;;1.80;1.70;;;;;;;15.43;72.22;101628.00;5031521;28;20199;-70
2021/07/08 02:15:21;;;;;;;3.17;1.77;;;;;;;15.41;72.06;101632.66;5035245;28;21828;-70
2021/07/08 02:17:50;;;;;;;1.70;1.60;;;;;;;15.39;72.57;101632.78;5036568;28;20229;-71
2021/07/08 02:20:18;;;;;;;2.80;1.97;;;;;;;15.35;72.00;101635.81;5039545;28;20201;-71
2021/07/08 02:22:46;;;;;;;6.40;2.10;;;;;;;15.31;72.19;101629.78;5043295;28;20818;-72
2021/07/08 02:25:16;;;;;;;8.53;1.80;;;;;;;15.25;73.04;101635.63;5031494;28;20230;-72
2021/07/08 02:27:45;;;;;;;3.17;1.67;;;;;;;15.23;72.69;101633.03;5037527;28;20236;-72
2021/07/08 02:30:16;;;;;;;5.37;1.43;;;;;;;15.27;72.71;101638.22;5033638;28;20205;-72
2021/07/08 02:32:48;;;;;;;2.83;1.70;;;;;;;15.31;71.95;101635.19;5030941;28;20784;-72
2021/07/08 02:35:17;;;;;;;2.80;1.70;;;;;;;15.38;72.62;101647.28;5037924;28;20295;-72
2021/07/08 02:37:46;;;;;;;3.03;1.90;;;;;;;15.56;72.53;101652.31;5049625;28;20200;-72
2021/07/08 02:40:16;;;;;;;3.37;1.90;;;;;;;15.96;73.97;101652.94;5031639;28;20573;-70
2021/07/08 02:42:50;;;;;;;1.77;1.60;;;;;;;16.52;73.58;101650.41;5034800;28;20650;-70
2021/07/08 02:45:20;;;;;;;3.33;1.70;;;;;;;17.17;73.65;101645.22;5050028;28;20205;-69
2021/07/08 02:47:51;;;;;;;2.83;1.57;;;;;;;17.82;72.35;101651.66;5042495;28;20555;-70
2021/07/08 02:50:20;;;;;;;4.67;1.30;;;;;;;18.46;71.36;101651.63;5043844;28;20302;-70
2021/07/08 02:52:48;;;;;;;2.33;1.27;;;;;;;18.91;70.05;101625.84;5047219;28;20217;-71
2021/07/08 02:55:18;;;;;;;3.63;1.80;;;;;;;19.44;67.67;101649.28;5035711;28;20557;-71
2021/07/08 02:57:46;;;;;;;2.90;1.43;;;;;;;19.61;66.21;101645.06;5035431;28;20203;-71
2021/07/08 03:00:17;;;;;;;4.27;1.50;;;;;;;20.02;63.93;101653.00;5043740;28;20194;-71
2021/07/08 03:02:46;;;;;;;1.87;1.37;;;;;;;20.50;62.72;101652.13;5055367;28;20321;-71
2021/07/08 03:05:16;;;;;;;2.23;1.77;;;;;;;20.76;61.90;101650.50;5061185;28;20203;-71
2021/07/08 03:07:45;;;;;;;2.63;1.30;;;;;;;20.93;60.39;101653.47;5060967;28;20202;-72
2021/07/08 03:10:16;;;;;;;3.37;1.77;;;;;;;20.89;60.24;101649.31;5044363;28;20194;-71
2021/07/08 03:12:44;;;;;;;2.17;1.47;;;;;;;20.90;60.34;101653.78;5035529;28;20209;-72
2021/07/08 03:15:14;;;;;;;1.73;1.30;;;;;;;21.07;61.00;101656.56;5048959;28;20198;-71
2021/07/08 03:17:42;;;;;;;3.50;1.43;;;;;;;21.23;59.83;101664.16;5041289;28;20205;-72
2021/07/08 03:20:12;;;;;;;5.77;1.40;;;;;;;21.28;59.78;101666.44;5049544;28;20227;-71
2021/07/08 03:22:43;;;;;;;1.47;1.37;;;;;;;20.74;60.32;101633.41;5049692;28;20214;-72
2021/07/08 03:25:13;;;;;;;4.53;1.40;;;;;;;20.47;60.27;101638.78;5045538;28;20191;-72
2021/07/08 03:27:44;;;;;;;1.43;1.40;;;;;;;20.44;60.66;101671.81;5060046;28;20216;-70
2021/07/08 03:30:14;;;;;;;2.97;1.60;;;;;;;20.15;61.33;101678.09;5042063;28;20381;-69
2021/07/08 03:32:43;;;;;;;6.63;1.30;;;;;;;19.93;62.55;101680.25;5046875;28;20222;-69
2021/07/08 03:35:12;;;;;;;2.60;1.60;;;;;;;19.67;62.85;101686.25;5051604;28;20263;-69
2021/07/08 03:37:42;;;;;;;1.50;1.40;;;;;;;19.23;63.13;101628.41;5049712;28;20206;-69
2021/07/08 03:40:13;;;;;;;3.63;1.40;;;;;;;19.46;63.89;101682.69;5043239;28;20206;-70
2021/07/08 03:42:41;;;;;;;2.10;1.40;;;;;;;19.38;63.76;101685.25;5044091;28;20317;-70
2021/07/08 03:45:11;;;;;;;1.40;1.30;;;;;;;19.19;64.12;101684.16;5043780;28;20205;-70
2021/07/08 03:47:40;;;;;;;4.50;1.50;;;;;;;18.93;65.37;101686.47;5046197;28;20221;-70
2021/07/08 03:50:11;;;;;;;2.43;1.33;;;;;;;18.79;65.83;101686.81;5049592;28;20204;-70
2021/07/08 03:52:41;;;;;;;2.37;1.30;;;;;;;18.49;65.53;101654.06;5044669;28;20673;-70
2021/07/08 03:55:13;;;;;;;1.50;1.40;;;;;;;18.73;66.26;101679.19;5039766;28;20210;-69
2021/07/08 03:57:53;;;;;;;1.73;1.30;;;;;;;18.75;66.16;101687.22;5039773;28;20672;-70
2021/07/08 04:00:27;;;;;;;1.30;1.30;;;;;;;18.76;66.92;101689.81;5042033;28;20704;-70
2021/07/08 04:02:56;;;;;;;1.53;1.40;;;;;;;18.80;67.42;101701.28;5038144;28;20221;-70
2021/07/08 04:05:24;;;;;;;2.73;2.00;;;;;;;18.70;67.47;101698.53;5039815;28;20191;-70
2021/07/08 04:07:52;;;;;;;2.07;1.40;;;;;;;18.41;67.20;101662.91;5041761;28;20221;-70
2021/07/08 04:10:22;;;;;;;1.80;1.60;;;;;;;18.72;67.48;101721.03;5044681;28;20197;-70
2021/07/08 04:12:50;;;;;;;1.70;1.60;;;;;;;18.78;68.75;101723.19;5050300;28;20202;-69
2021/07/08 04:15:20;;;;;;;3.07;1.67;;;;;;;18.79;68.62;101724.94;5047195;28;20641;-69
2021/07/08 04:17:48;;;;;;;1.67;1.57;;;;;;;18.75;68.68;101720.75;5058864;28;20198;-69
2021/07/08 04:20:18;;;;;;;3.67;1.60;;;;;;;18.67;68.85;101704.19;5059544;28;20239;-69
2021/07/08 04:22:48;;;;;;;2.10;1.80;;;;;;;18.80;68.97;101726.66;5061136;28;20206;-70
2021/07/08 04:25:17;;;;;;;2.97;1.77;;;;;;;18.65;69.50;101730.69;5047922;28;20201;-70
2021/07/08 04:27:47;;;;;;;1.90;1.80;;;;;;;18.59;69.34;101706.69;5058973;28;20198;-71
2021/07/08 04:30:18;;;;;;;4.53;1.83;;;;;;;18.57;71.39;101739.47;5057692;28;20604;-71
2021/07/08 04:32:46;;;;;;;1.83;1.70;;;;;;;18.44;72.72;101733.38;5053039;28;20234;-71
2021/07/08 04:35:18;;;;;;;2.37;1.90;;;;;;;18.34;73.25;101732.41;5056933;28;20227;-71
2021/07/08 04:37:47;;;;;;;2.90;1.60;;;;;;;18.35;74.55;101734.13;5061029;28;20190;-70
2021/07/08 04:40:17;;;;;;;1.80;1.70;;;;;;;18.38;74.28;101742.06;5054521;28;20205;-70
2021/07/08 04:42:47;;;;;;;1.77;1.67;;;;;;;18.48;74.83;101733.97;5055473;28;20240;-70
2021/07/08 04:45:16;;;;;;;1.93;1.63;;;;;;;18.47;74.93;101734.97;5052324;28;20222;-68
2021/07/08 04:47:45;;;;;;;1.87;1.77;;;;;;;18.51;75.66;101736.44;5044654;28;20704;-67
2021/07/08 04:50:16;;;;;;;1.90;1.80;;;;;;;18.63;75.34;101737.25;5040782;28;20203;-67
2021/07/08 04:52:46;;;;;;;4.90;2.10;;;;;;;18.77;74.64;101735.09;5046584;28;20225;-67
2021/07/08 04:55:17;;;;;;;2.73;2.33;;;;;;;18.99;73.03;101749.56;5039541;28;20194;-69
2021/07/08 04:57:47;;;;;;;3.93;2.50;;;;;;;19.12;72.94;101758.38;5055526;28;20211;-69
2021/07/08 05:00:18;;;;;;;2.30;2.10;;;;;;;19.26;72.90;101763.47;5058520;28;20567;-69
2021/07/08 05:02:46;;;;;;;2.90;2.47;;;;;;;19.41;72.27;101763.97;5043237;28;20224;-68
2021/07/08 05:05:16;;;;;;;5.03;3.23;;;;;;;19.59;73.92;101764.22;5035855;28;20202;-69
2021/07/08 05:07:44;;;;;;;5.63;3.60;;;;;;;19.76;72.91;101755.41;5045035;28;20237;-69
2021/07/08 05:10:14;;;;;;;5.60;3.60;;;;;;;19.99;73.23;101759.63;5044658;28;20559;-68
2021/07/08 05:12:43;;;;;;;4.07;2.70;;;;;;;20.31;70.87;101759.41;5040447;28;20696;-67
2021/07/08 05:15:15;;;;;;;3.93;2.70;;;;;;;20.55;69.95;101759.03;5030920;28;20217;-69
2021/07/08 05:17:44;;;;;;;4.00;2.60;;;;;;;20.59;70.36;101737.75;5033255;28;20233;-69
2021/07/08 05:20:14;;;;;;;5.17;2.77;;;;;;;20.99;69.88;101764.88;5031868;28;20677;-68
2021/07/08 05:22:43;;;;;;;4.20;2.70;;;;;;;21.19;69.15;101763.81;5034593;28;20205;-68
2021/07/08 05:25:14;;;;;;;2.37;2.13;;;;;;;21.38;68.33;101747.38;5042751;28;20224;-69
2021/07/08 05:27:43;;;;;;;3.87;2.53;;;;;;;21.66;68.06;101763.81;5033595;28;20208;-69
2021/07/08 05:30:14;;;;;;;4.50;2.47;;;;;;;21.93;67.56;101758.34;5033407;28;20205;-69
2021/07/08 05:32:42;;;;;;;2.30;2.10;;;;;;;22.26;66.28;101766.97;5034767;28;20241;-69
2021/07/08 05:35:11;;;;;;;2.63;2.43;;;;;;;22.46;65.62;101767.69;5047735;28;20205;-69
2021/07/08 05:37:39;;;;;;;2.77;2.00;;;;;;;22.80;64.71;101773.28;5060799;28;20788;-70
2021/07/08 05:40:08;;;;;;;3.27;2.23;;;;;;;22.93;64.77;101740.88;5065250;28;20774;-69
2021/07/08 05:42:37;;;;;;;2.30;2.10;;;;;;;23.13;63.68;101767.09;5048882;28;20186;-70
2021/07/08 05:45:07;;;;;;;1.93;1.73;;;;;;;23.45;63.82;101774.66;5044962;28;20265;-70
2021/07/08 05:47:36;;;;;;;3.50;1.70;;;;;;;23.70;62.34;101766.59;5031446;28;20717;-70
2021/07/08 05:50:06;;;;;;;3.10;1.90;;;;;;;24.05;61.35;101782.84;5048783;28;20446;-70
2021/07/08 05:52:34;;;;;;;2.43;1.47;;;;;;;24.29;60.85;101773.00;5041124;28;20207;-68
2021/07/08 05:55:02;;;;;;;2.38;1.40;;;;;;;24.61;59.15;101780.44;5032981;28;20194;-68
2021/07/08 05:57:30;;;;;;;2.53;1.50;;;;;;;24.86;58.13;101787.66;5055840;28;20197;-71
2021/07/08 05:59:58;;;;;;;2.13;1.42;;;;;;;24.96;57.26;101798.47;5046801;28;20233;-69
2021/07/08 06:02:27;;;;;;;5.70;1.85;;;;;;;25.11;56.36;101782.19;5052917;28;20197;-69
2021/07/08 06:04:56;;;;;;;3.60;1.38;;;;;;;25.54;55.73;101795.50;5059185;28;20222;-68
2021/07/08 06:07:24;;;;;;;2.00;1.23;;;;;;;25.78;54.62;101778.09;5056886;28;20660;-69
2021/07/08 06:09:55;;;;;;;1.70;1.45;;;;;;;26.22;54.07;101797.66;5049593;28;20607;-67
2021/07/08 06:12:23;;;;;;;2.58;1.58;;;;;;;26.53;53.69;101799.56;5044901;28;20198;-67
2021/07/08 06:14:52;;;;;;;1.65;1.40;;;;;;;26.55;52.39;101791.97;5030336;28;20198;-68
2021/07/08 06:17:20;;;;;;;1.52;1.42;;;;;;;26.86;51.95;101795.53;5044156;28;20672;-68
2021/07/08 06:19:48;;;;;;;1.65;1.40;;;;;;;27.20;51.04;101797.00;5040199;28;20206;-68
2021/07/08 06:22:18;;;;;;;4.15;1.48;;;;;;;27.26;50.41;101796.25;5038402;28;20611;-68
2021/07/08 06:24:46;;;;;;;3.22;1.40;;;;;;;27.51;49.84;101805.97;5034247;28;20319;-69
2021/07/08 06:27:14;;;;;;;2.17;1.48;;;;;;;27.68;49.38;101795.66;5038061;28;20201;-68
2021/07/08 06:29:42;;;;;;;2.00;1.50;;;;;;;27.73;48.15;101789.56;5036067;28;20195;-68
2021/07/08 06:32:11;;;;;;;2.78;1.70;;;;;;;28.03;48.11;101794.00;5037274;28;20234;-68
2021/07/08 06:34:39;;;;;;;5.43;1.55;;;;;;;28.15;47.36;101800.72;5037875;28;20195;-68
2021/07/08 06:37:07;;;;;;;1.48;1.30;;;;;;;28.40;46.23;101808.72;5034418;28;20199;-68
2021/07/08 06:39:37;;;;;;;3.03;1.40;;;;;;;28.44;45.84;101810.88;5039642;28;20201;-68
2021/07/08 06:42:05;;;;;;;1.50;1.40;;;;;;;28.47;45.31;101819.84;5034814;28;20779;-68
2021/07/08 06:44:33;;;;;;;1.73;1.40;;;;;;;28.85;46.04;101815.84;5039892;28;20217;-68
2021/07/08 06:47:03;;;;;;;1.52;1.42;;;;;;;28.54;43.83;101810.59;5034397;28;20603;-68
2021/07/08 06:49:34;;;;;;;4.90;2.05;;;;;;;28.77;44.66;101816.78;5038786;28;20788;-68
2021/07/08 06:52:02;;;;;;;2.33;1.40;;;;;;;29.02;45.02;101808.09;5043714;28;20430;-68
2021/07/08 06:54:30;;;;;;;1.60;1.50;;;;;;;29.40;45.05;101816.97;5037344;28;20194;-68
2021/07/08 06:57:00;;;;;;;3.03;1.60;;;;;;;29.67;44.50;101809.69;5036384;28;20195;-68
2021/07/08 06:59:28;;;;;;;1.35;1.25;;;;;;;29.52;42.81;101806.19;5036967;28;20498;-68
2021/07/08 07:01:56;;;;;;;3.15;1.50;;;;;;;29.66;43.92;101807.97;5036433;28;20202;-69
2021/07/08 07:04:25;;;;;;;1.90;1.33;;;;;;;29.82;43.91;101806.81;5034030;28;20214;-68
2021/07/08 07:06:53;;;;;;;2.38;1.20;;;;;;;30.05;43.98;101798.22;5037429;28;20205;-68
2021/07/08 07:09:21;;;;;;;3.00;1.30;;;;;;;30.06;43.28;101797.16;5039187;28;20225;-68
2021/07/08 07:11:49;;;;;;;1.85;1.38;;;;;;;30.23;42.90;101804.03;5039698;28;20209;-68
2021/07/08 07:14:18;;;;;;;3.60;1.35;;;;;;;30.17;42.88;101811.28;5036947;28;20191;-68
2021/07/08 07:16:46;;;;;;;3.60;1.30;;;;;;;30.62;43.51;101816.38;5034281;28;20205;-69
2021/07/08 07:19:15;;;;;;;5.05;1.42;;;;;;;30.88;42.83;101805.28;5038388;28;20198;-68
2021/07/08 07:21:43;;;;;;;4.72;1.42;;;;;;;30.80;41.35;101799.97;5034307;28;20218;-69
2021/07/08 07:24:11;;;;;;;1.40;1.30;;;;;;;31.09;41.27;101815.34;5043528;28;20573;-68
2021/07/08 07:26:39;;;;;;;4.00;1.48;;;;;;;31.30;41.54;101817.94;5034675;28;20201;-70
2021/07/08 07:29:07;;;;;;;1.13;1.10;;;;;;;31.42;41.21;101819.00;5040691;28;20355;-69
2021/07/08 07:31:37;;;;;;;1.15;1.05;;;;;;;31.43;39.85;101820.72;5035549;28;20625;-69
2021/07/08 07:34:05;;;;;;;2.83;1.27;;;;;;;31.45;40.22;101817.72;5039623;28;20227;-68
2021/07/08 07:36:33;;;;;;;2.15;1.05;;;;;;;31.80;40.65;101810.81;5038166;28;20229;-68
2021/07/08 07:39:01;;;;;;;1.65;1.33;;;;;;;32.01;40.09;101822.75;5037884;28;20201;-69
2021/07/08 07:41:30;;;;;;;2.30;1.40;;;;;;;32.32;39.07;101822.84;5039596;28;20270;-69
2021/07/08 07:43:58;;;;;;;3.40;1.50;;;;;;;32.03;38.98;101821.44;5033429;28;20198;-69
2021/07/08 07:46:26;;;;;;;4.13;1.30;;;;;;;32.13;38.84;101807.94;5040182;28;20220;-69
2021/07/08 07:48:55;;;;;;;5.85;1.65;;;;;;;32.53;38.63;101829.19;5034854;28;20682;-68
2021/07/08 07:51:23;;;;;;;1.92;1.73;;;;;;;32.65;38.41;101833.81;5040886;28;20209;-69
2021/07/08 07:53:52;;;;;;;1.60;1.48;;;;;;;32.74;38.32;101831.59;5037557;28;20206;-70
2021/07/08 07:56:20;;;;;;;2.35;1.70;;;;;;;32.64;37.94;101829.31;5042864;28;20682;-68
2021/07/08 07:58:48;;;;;;;2.25;1.58;;;;;;;32.30;37.76;101835.28;5044892;28;20201;-67
2021/07/08 08:01:16;;;;;;;2.80;1.27;;;;;;;31.63;37.67;101823.47;5046626;28;20244;-70
2021/07/08 08:03:44;;;;;;;1.52;1.40;;;;;;;32.03;38.34;101834.50;5050631;28;20636;-69
2021/07/08 08:08:59;;;;;;;1.80;1.42;;;;;;;32.09;37.70;101828.06;5048115;28;20204;-71
2021/07/08 08:11:28;;;;;;;2.90;1.45;;;;;;;32.09;38.52;101833.63;5050933;28;20206;-71
2021/07/08 08:13:56;;;;;;;1.45;1.35;;;;;;;32.41;38.87;101835.44;5045636;28;20540;-70
2021/07/08 08:16:24;;;;;;;1.38;1.25;;;;;;;32.84;38.66;101842.28;5049799;28;20186;-70
2021/07/08 08:18:53;;;;;;;2.00;1.27;;;;;;;32.39;37.60;101834.81;5045047;28;20594;-71
2021/07/08 08:21:23;;;;;;;3.72;1.30;;;;;;;32.12;37.03;101825.69;5046632;28;20560;-70
2021/07/08 08:23:51;;;;;;;1.50;1.38;;;;;;;32.32;38.06;101831.22;5051107;28;20276;-70
2021/07/08 08:26:19;;;;;;;2.80;1.45;;;;;;;31.91;37.51;101795.41;5049360;28;20218;-71
2021/07/08 08:28:51;;;;;;;1.65;1.30;;;;;;;32.07;36.96;101830.22;5051126;28;20245;-70
2021/07/08 08:31:19;;;;;;;3.67;1.30;;;;;;;32.24;37.12;101837.00;5050544;28;20641;-70
2021/07/08 08:33:48;;;;;;;1.30;1.20;;;;;;;32.47;37.24;101846.78;5048599;28;20214;-70
2021/07/08 08:36:16;;;;;;;1.65;1.17;;;;;;;32.31;36.42;101843.41;5044090;28;20252;-69
2021/07/08 08:38:46;;;;;;;2.05;1.15;;;;;;;32.62;36.47;101842.59;5047582;28;20482;-69
2021/07/08 08:41:16;;;;;;;1.50;1.00;;;;;;;32.59;36.02;101836.63;5044766;28;20213;-69
2021/07/08 08:43:45;;;;;;;1.27;1.20;;;;;;;32.95;36.69;101838.78;5046136;28;20205;-67
2021/07/08 08:46:13;;;;;;;1.52;1.30;;;;;;;32.88;35.58;101836.06;5045294;28;20217;-70
2021/07/08 08:48:41;;;;;;;2.92;1.33;;;;;;;32.81;36.17;101840.81;5051333;28;20572;-69
2021/07/08 08:51:10;;;;;;;2.20;1.00;;;;;;;32.89;35.94;101840.53;5044921;28;20205;-69
2021/07/08 08:53:38;;;;;;;1.45;1.35;;;;;;;33.00;36.09;101842.59;5043590;28;20224;-69
2021/07/08 08:56:08;;;;;;;1.75;1.40;;;;;;;33.31;36.23;101843.66;5048251;28;20508;-67
2021/07/08 08:58:40;;;;;;;1.92;1.30;;;;;;;33.33;35.95;101847.91;5046165;28;20210;-67
2021/07/08 09:01:08;;;;;;;2.80;1.20;;;;;;;33.33;34.88;101847.06;5036329;28;20198;-69
2021/07/08 09:03:37;;;;;;;4.63;1.10;;;;;;;33.15;35.17;101845.06;5042647;28;20195;-69
2021/07/08 09:06:08;;;;;;;1.02;1.02;;;;;;;33.22;35.99;101834.72;5044439;28;20222;-68
2021/07/08 09:08:38;;;;;;;1.60;1.35;;;;;;;33.65;36.18;101820.81;5050263;28;20197;-68
2021/07/08 09:11:12;;;;;;;1.40;1.10;;;;;;;33.87;35.48;101837.13;5049940;28;20217;-68
2021/07/08 09:13:50;;;;;;;1.23;1.10;;;;;;;34.17;34.66;101840.84;5051363;28;20209;-68
2021/07/08 09:16:21;;;;;;;2.45;0.90;;;;;;;34.08;34.99;101830.25;5046344;28;20201;-70
2021/07/08 09:19:01;;;;;;;3.40;1.13;;;;;;;34.45;33.25;101836.66;5050851;28;20209;-70
2021/07/08 09:21:31;;;;;;;1.35;1.00;;;;;;;34.40;34.82;101833.72;5045407;28;20660;-69
2021/07/08 09:24:06;;;;;;;1.27;1.10;;;;;;;34.28;34.57;101843.94;5045220;28;20193;-70
2021/07/08 09:26:38;;;;;;;1.70;1.10;;;;;;;34.60;34.67;101848.28;5046531;28;20319;-70
2021/07/08 09:29:08;;;;;;;3.70;1.10;;;;;;;34.51;34.34;101858.88;5050587;28;20328;-70
2021/07/08 09:31:38;;;;;;;6.45;1.00;;;;;;;34.32;34.24;101867.50;5045168;28;20569;-70
2021/07/08 09:34:17;;;;;;;3.40;1.27;;;;;;;34.34;31.91;101863.44;5050577;28;20193;-70
2021/07/08 09:36:47;;;;;;;3.33;1.20;;;;;;;34.52;33.46;101863.38;5047881;28;20201;-69
2021/07/08 09:39:16;;;;;;;2.03;1.17;;;;;;;34.51;33.90;101866.41;5029832;28;20205;-69
2021/07/08 09:41:53;;;;;;;1.92;1.20;;;;;;;34.48;33.97;101864.09;5046330;28;20226;-70
2021/07/08 09:44:24;;;;;;;1.50;1.00;;;;;;;34.09;32.78;101843.97;5043954;28;20201;-69
2021/07/08 09:46:55;;;;;;;1.58;1.10;;;;;;;34.04;32.20;101866.13;5047956;28;20214;-69
2021/07/08 09:49:25;;;;;;;1.02;0.93;;;;;;;34.00;32.73;101852.88;5046416;28;20945;-68
2021/07/08 09:51:54;;;;;;;1.10;0.93;;;;;;;34.20;33.79;101859.06;5042393;28;20296;-69
2021/07/08 09:57:40;;;;;;;0.90;0.90;;;;;;;34.05;33.20;101859.47;5015524;28;20218;-69
2021/07/08 10:00:28;;;;;;;4.38;1.20;;;;;;;33.51;34.31;101865.78;5048464;28;20189;-69
2021/07/08 10:02:57;;;;;;;2.35;1.10;;;;;;;33.63;33.79;101859.22;5045501;28;20202;-68
2021/07/08 10:05:25;;;;;;;0.90;0.90;;;;;;;33.89;33.47;101857.28;5042699;28;20284;-68
2021/07/08 10:07:54;;;;;;;2.05;1.42;;;;;;;33.55;32.50;101833.59;5043319;28;20201;-68
2021/07/08 10:10:23;;;;;;;0.95;0.95;;;;;;;33.62;33.17;101849.16;5043216;28;20206;-69
2021/07/08 10:12:52;;;;;;;1.65;1.02;;;;;;;33.65;33.23;101840.31;5050506;28;20280;-69
2021/07/08 10:15:20;;;;;;;3.00;1.20;;;;;;;34.02;32.84;101840.41;5049115;28;20247;-69
2021/07/08 10:17:49;;;;;;;1.23;1.10;;;;;;;34.31;33.92;101846.28;5048758;28;20543;-69
2021/07/08 10:20:20;;;;;;;3.47;1.10;;;;;;;34.22;32.48;101845.72;5046987;28;20238;-69
2021/07/08 10:22:48;;;;;;;2.90;1.20;;;;;;;34.10;32.73;101842.88;5048621;28;20724;-69
2021/07/08 10:25:16;;;;;;;5.47;1.52;;;;;;;33.85;31.79;101842.94;5045385;28;20198;-69
2021/07/08 10:27:46;;;;;;;1.40;1.02;;;;;;;33.97;32.64;101829.06;5045729;28;20657;-69
2021/07/08 10:30:21;;;;;;;1.30;1.20;;;;;;;34.01;33.53;101833.13;5054957;28;20254;-70
2021/07/08 10:32:57;;;;;;;1.10;1.10;;;;;;;33.95;31.80;101829.31;5048733;28;20233;-69
2021/07/08 10:35:38;;;;;;;2.33;1.13;;;;;;;34.21;33.95;101839.28;5046629;28;20661;-69
2021/07/08 10:38:40;;;;;;;1.15;1.02;;;;;;;34.29;30.57;101837.25;5033109;28;20203;-70
2021/07/08 10:41:46;;;;;;;3.42;1.20;;;;;;;33.75;32.04;101839.81;5046403;28;20204;-69
2021/07/08 10:44:49;;;;;;;1.77;1.10;;;;;;;33.65;32.32;101840.31;5052182;28;20209;-69
2021/07/08 10:47:39;;;;;;;1.52;1.00;;;;;;;33.59;32.12;101838.47;5044102;28;20217;-69
2021/07/08 10:50:24;;;;;;;1.55;1.00;;;;;;;33.41;34.24;101835.66;5046067;28;20205;-69
2021/07/08 10:52:52;;;;;;;1.02;1.02;;;;;;;33.23;32.81;101830.00;5044969;28;20216;-68
2021/07/08 10:55:39;;;;;;;1.98;1.02;;;;;;;33.48;34.43;101833.66;5048252;28;20194;-69
2021/07/08 10:58:28;;;;;;;2.35;1.20;;;;;;;33.49;33.85;101835.34;5048689;28;20194;-69
2021/07/08 11:00:56;;;;;;;1.67;1.15;;;;;;;33.06;34.03;101839.97;5045570;28;20725;-69
2021/07/08 11:03:44;;;;;;;2.28;1.30;;;;;;;33.16;35.85;101830.06;5063787;28;20213;-68
2021/07/08 11:06:18;;;;;;;3.25;1.30;;;;;;;33.43;33.81;101833.50;5051540;28;20688;-68
2021/07/08 11:09:04;;;;;;;1.02;1.02;;;;;;;32.88;34.48;101833.25;5052451;28;20205;-68
2021/07/08 11:12:01;;;;;;;2.15;1.30;;;;;;;33.10;32.15;101824.53;5049084;28;20241;-68
2021/07/08 11:14:31;;;;;;;3.55;1.30;;;;;;;32.74;33.88;101821.31;5053846;28;20559;-68
2021/07/08 11:17:02;;;;;;;2.28;1.00;;;;;;;32.93;32.83;101813.94;5045850;28;20563;-68
2021/07/08 11:19:45;;;;;;;1.92;1.10;;;;;;;32.49;33.20;101811.22;5048298;28;20228;-68
2021/07/08 11:22:25;;;;;;;2.78;1.30;;;;;;;32.71;33.85;101810.63;5056492;28;20204;-70
2021/07/08 11:24:55;;;;;;;1.90;1.27;;;;;;;32.62;33.39;101811.13;5050386;28;20586;-70
2021/07/08 11:27:37;;;;;;;2.13;1.02;;;;;;;32.50;32.53;101804.59;5048246;28;20325;-69
2021/07/08 11:30:27;;;;;;;3.05;1.27;;;;;;;32.56;34.62;101809.25;5053266;28;20194;-68
2021/07/08 11:32:59;;;;;;;1.13;1.05;;;;;;;32.44;34.30;101803.53;5043599;28;21546;-70
2021/07/08 11:35:31;;;;;;;1.88;1.20;;;;;;;32.61;35.50;101813.06;5049178;28;20197;-70
2021/07/08 11:38:02;;;;;;;1.48;1.35;;;;;;;32.63;35.39;101813.69;5062026;28;20198;-69
2021/07/08 11:40:37;;;;;;;1.90;1.30;;;;;;;32.60;35.31;101804.94;5052128;28;20200;-70
2021/07/08 11:43:18;;;;;;;2.13;1.38;;;;;;;32.22;34.26;101805.78;5049001;28;20205;-69
2021/07/08 11:45:48;;;;;;;1.83;1.20;;;;;;;32.72;34.92;101798.44;5048460;28;20256;-69